Time;durP1;ratioP1;P1;durP2;ratioP2;P2;SDS_P1;SDS_P2;PMS_P1;PMS_P2;Temp;Humidity;BMP_temperature;BMP_pressure;BME280_temperature;BME280_humidity;BME280_pressure;Samples;Min_cycle;Max_cycle;Signal;HPM_P1;HPM_P2
2023/01/12 00:01:24;;;;;;;6.88;1.85;;;;;;;7.61;100.00;100993.13;5032846;28;20036;-95
2023/01/12 00:03:50;;;;;;;9.82;1.88;;;;;;;7.66;100.00;101003.66;5046825;28;20036;-96
2023/01/12 00:06:18;;;;;;;6.28;1.83;;;;;;;7.67;100.00;101000.25;5030630;28;20121;-95
2023/01/12 00:08:44;;;;;;;7.03;2.00;;;;;;;7.68;100.00;100983.88;5030719;28;20024;-96
2023/01/12 00:11:09;;;;;;;8.80;2.50;;;;;;;7.69;100.00;100985.66;5032739;28;20037;-96
2023/01/12 00:13:37;;;;;;;8.20;1.90;;;;;;;7.72;100.00;100980.56;5030552;28;20034;-96
2023/01/12 00:18:48;;;;;;;6.18;2.00;;;;;;;7.72;100.00;100975.38;5035398;28;20060;-96
2023/01/12 00:21:14;;;;;;;6.60;2.13;;;;;;;7.72;100.00;100974.47;5047332;28;20017;-96
2023/01/12 00:23:41;;;;;;;10.18;2.38;;;;;;;7.75;100.00;100969.41;5032589;28;20052;-95
2023/01/12 00:26:09;;;;;;;10.60;2.50;;;;;;;7.76;100.00;100977.28;5031386;28;20017;-96
2023/01/12 00:28:35;;;;;;;10.20;2.33;;;;;;;7.77;100.00;100972.94;5030717;28;20052;-96
2023/01/12 00:31:02;;;;;;;9.27;2.30;;;;;;;7.78;100.00;100973.00;5031902;28;20088;-95
2023/01/12 00:33:37;;;;;;;11.43;2.05;;;;;;;7.80;100.00;100963.56;5029483;28;20025;-96
2023/01/12 00:36:11;;;;;;;8.00;2.13;;;;;;;7.81;100.00;100952.38;5032403;28;20068;-96
2023/01/12 00:38:37;;;;;;;9.95;2.28;;;;;;;7.81;100.00;100954.97;5029412;28;20143;-95
2023/01/12 00:41:11;;;;;;;9.82;2.60;;;;;;;7.82;100.00;100937.69;5029766;28;20033;-96
2023/01/12 00:46:34;;;;;;;10.18;2.55;;;;;;;7.84;100.00;100942.09;5031525;28;20112;-96
2023/01/12 00:49:00;;;;;;;7.75;2.47;;;;;;;7.86;100.00;100936.09;5031410;28;20037;-95
2023/01/12 00:51:25;;;;;;;9.75;2.40;;;;;;;7.86;100.00;100931.78;5031745;28;20414;-96
2023/01/12 00:53:50;;;;;;;9.38;2.85;;;;;;;7.86;100.00;100936.97;5029520;28;20101;-95
2023/01/12 00:56:17;;;;;;;8.85;2.50;;;;;;;7.88;100.00;100931.81;5030235;28;20450;-95
2023/01/12 00:58:42;;;;;;;8.15;2.33;;;;;;;7.86;100.00;100928.31;5031354;28;20049;-96
2023/01/12 01:01:08;;;;;;;11.98;2.72;;;;;;;7.83;100.00;100917.00;5030084;28;20033;-95
2023/01/12 01:03:34;;;;;;;8.30;2.55;;;;;;;7.85;100.00;100914.47;5032008;28;20052;-95
2023/01/12 01:06:05;;;;;;;6.22;2.17;;;;;;;7.87;100.00;100917.13;5029485;28;20037;-96
2023/01/12 01:08:31;;;;;;;9.55;2.72;;;;;;;7.86;100.00;100905.84;5046659;28;20029;-95
2023/01/12 01:11:01;;;;;;;10.95;2.95;;;;;;;7.86;100.00;100904.97;5031502;28;20508;-96
2023/01/12 01:13:27;;;;;;;8.85;2.38;;;;;;;7.87;100.00;100896.34;5029157;28;20033;-96
2023/01/12 01:15:52;;;;;;;10.82;2.88;;;;;;;7.86;100.00;100900.66;5039819;28;20045;-96
2023/01/12 01:18:18;;;;;;;11.88;2.97;;;;;;;7.86;100.00;100897.19;5038003;28;20113;-96
2023/01/12 01:20:49;;;;;;;8.88;2.80;;;;;;;7.86;100.00;100899.78;5036491;28;21408;-96
2023/01/12 01:23:14;;;;;;;9.02;2.80;;;;;;;7.85;100.00;100893.72;5035684;28;20040;-96
2023/01/12 01:25:40;;;;;;;11.38;2.78;;;;;;;7.86;100.00;100887.66;5038571;28;20036;-96
2023/01/12 01:28:05;;;;;;;11.48;3.03;;;;;;;7.87;100.00;100891.16;5034072;28;20049;-96
2023/01/12 01:30:31;;;;;;;13.50;3.50;;;;;;;7.85;100.00;100888.53;5036164;28;20053;-96
2023/01/12 01:32:56;;;;;;;9.20;2.80;;;;;;;7.87;100.00;100883.38;5035417;28;20032;-96
2023/01/12 01:35:23;;;;;;;17.88;3.55;;;;;;;7.86;100.00;100876.44;5035174;28;20085;-96
2023/01/12 01:37:48;;;;;;;10.30;2.60;;;;;;;7.86;100.00;100874.69;5026478;28;20037;-96
2023/01/12 01:40:14;;;;;;;15.82;2.88;;;;;;;7.85;100.00;100878.16;5033300;28;20029;-96
2023/01/12 01:42:40;;;;;;;7.20;2.50;;;;;;;7.86;100.00;100879.03;5032900;28;20433;-96
2023/01/12 01:45:09;;;;;;;8.05;2.47;;;;;;;7.88;100.00;100885.13;5033380;28;20313;-96
2023/01/12 01:47:46;;;;;;;12.70;3.33;;;;;;;7.88;100.00;100879.94;5028412;28;20029;-95
2023/01/12 01:50:25;;;;;;;12.15;2.80;;;;;;;7.88;100.00;100873.06;5027229;28;20044;-95
2023/01/12 01:52:56;;;;;;;14.82;2.92;;;;;;;7.87;100.00;100865.22;5022816;28;20034;-96
2023/01/12 01:55:29;;;;;;;16.98;3.13;;;;;;;7.86;100.00;100864.31;5028028;28;20038;-95
2023/01/12 01:58:03;;;;;;;12.75;2.92;;;;;;;7.85;100.00;100852.22;5025357;28;20053;-95
2023/01/12 02:00:29;;;;;;;11.32;2.60;;;;;;;7.87;100.00;100841.88;5028767;28;20037;-95
2023/01/12 02:02:55;;;;;;;10.43;2.33;;;;;;;7.85;100.00;100841.81;5027776;28;20080;-94
2023/01/12 02:05:25;;;;;;;12.07;2.75;;;;;;;7.84;100.00;100835.75;5028373;28;20033;-94
2023/01/12 02:07:51;;;;;;;;;;;;;;;7.89;100.00;100837.63;5029291;28;20026;-95
2023/01/12 02:10:18;;;;;;;12.48;2.60;;;;;;;7.86;100.00;100842.69;5029404;28;20091;-95
2023/01/12 02:18:38;;;;;;;11.13;2.35;;;;;;;7.85;100.00;100810.69;5035064;28;20136;-93
2023/01/12 02:21:19;;;;;;;13.07;3.10;;;;;;;7.83;100.00;100821.03;5033081;28;20033;-93
2023/01/12 02:24:14;;;;;;;10.90;2.88;;;;;;;7.83;100.00;100823.63;5046974;28;20466;-95
2023/01/12 02:27:25;;;;;;;12.48;2.65;;;;;;;7.83;100.00;100823.63;5026833;28;20037;-95
2023/01/12 02:30:28;;;;;;;9.70;2.75;;;;;;;7.89;100.00;100827.22;5027210;28;20025;-96
2023/01/12 02:33:05;;;;;;;13.10;2.55;;;;;;;7.88;100.00;100820.28;5029631;28;20475;-96
2023/01/12 02:35:44;;;;;;;12.00;2.58;;;;;;;7.89;100.00;100811.66;5029275;28;20029;-95
2023/01/12 02:38:34;;;;;;;8.80;2.70;;;;;;;7.91;100.00;100807.44;5028190;28;20550;-96
2023/01/12 02:41:17;;;;;;;11.07;2.45;;;;;;;7.91;100.00;100800.53;5028546;28;20167;-96
2023/01/12 02:43:43;;;;;;;9.02;2.28;;;;;;;7.93;100.00;100798.84;5028079;28;20372;-95
2023/01/12 02:46:30;;;;;;;10.60;2.47;;;;;;;7.93;100.00;100787.59;5026580;28;20482;-96
2023/01/12 02:49:11;;;;;;;10.95;2.45;;;;;;;7.96;100.00;100785.09;5027171;28;20037;-95
2023/01/12 02:51:44;;;;;;;10.30;2.70;;;;;;;7.97;100.00;100790.34;5028080;28;20021;-95
2023/01/12 02:54:13;;;;;;;16.00;3.08;;;;;;;7.99;100.00;100792.97;5028028;28;20021;-95
2023/01/12 02:56:51;;;;;;;10.30;2.50;;;;;;;8.00;100.00;100780.06;5044582;28;20498;-95
2023/01/12 02:59:21;;;;;;;13.00;2.78;;;;;;;7.99;100.00;100777.41;5043616;28;20059;-95
2023/01/12 03:01:50;;;;;;;10.70;2.60;;;;;;;7.99;100.00;100761.84;5026673;28;20028;-95
2023/01/12 03:04:17;;;;;;;10.52;2.45;;;;;;;8.00;100.00;100767.09;5042757;28;20028;-95
2023/01/12 03:06:54;;;;;;;14.00;3.00;;;;;;;8.00;100.00;100748.06;5027129;28;20098;-95
2023/01/12 03:09:23;;;;;;;10.73;2.40;;;;;;;7.99;100.00;100746.28;5026468;28;20557;-96
2023/01/12 03:11:53;;;;;;;13.23;2.45;;;;;;;7.98;100.00;100739.31;5028165;28;20030;-95
2023/01/12 03:14:21;;;;;;;13.35;2.75;;;;;;;7.98;100.00;100729.84;5044068;28;20025;-95
2023/01/12 03:16:48;;;;;;;7.43;2.50;;;;;;;7.99;100.00;100715.16;5026420;28;20116;-95
2023/01/12 03:19:18;;;;;;;7.75;2.20;;;;;;;8.00;100.00;100716.91;5027110;28;20377;-95
2023/01/12 03:21:57;;;;;;;10.27;2.67;;;;;;;8.02;100.00;100702.25;5027593;28;20034;-94
2023/01/12 03:24:43;;;;;;;;;;;;;;;8.05;100.00;100715.34;5028549;28;20033;-95
2023/01/12 03:27:17;;;;;;;12.02;2.45;;;;;;;8.01;100.00;100708.31;5027103;28;19963;-94
2023/01/12 03:29:53;;;;;;;11.45;2.97;;;;;;;8.01;100.00;100710.91;5027156;28;20509;-95
2023/01/12 03:32:20;;;;;;;10.27;2.22;;;;;;;8.00;100.00;100690.97;5027695;28;20525;-95
2023/01/12 03:34:48;;;;;;;11.45;2.20;;;;;;;8.00;100.00;100686.66;5027223;28;21464;-95
2023/01/12 03:37:20;;;;;;;6.95;2.08;;;;;;;8.00;100.00;100689.25;5023579;28;20049;-95
2023/01/12 03:40:05;;;;;;;10.15;2.50;;;;;;;8.03;100.00;100691.06;5027203;28;20569;-95
2023/01/12 03:42:45;;;;;;;7.40;2.47;;;;;;;8.03;100.00;100678.09;5039386;28;20112;-95
2023/01/12 03:45:36;;;;;;;8.25;2.13;;;;;;;8.03;100.00;100677.22;5020321;28;20444;-95
2023/01/12 03:48:15;;;;;;;8.63;2.13;;;;;;;8.04;100.00;100682.44;5019456;28;20527;-95
2023/01/12 03:50:46;;;;;;;;;;;;;;;8.08;100.00;100660.06;5019797;28;20032;-95
2023/01/12 03:53:14;;;;;;;5.25;1.55;;;;;;;8.07;100.00;100659.19;5020500;28;19921;-94
2023/01/12 03:55:42;;;;;;;7.95;2.20;;;;;;;8.06;100.00;100641.84;5020527;28;20033;-95
2023/01/12 03:58:08;;;;;;;9.10;2.38;;;;;;;8.07;100.00;100629.78;5033033;28;20083;-95
2023/01/12 04:00:34;;;;;;;9.65;2.15;;;;;;;8.06;100.00;100615.03;5020481;28;20040;-95
2023/01/12 04:03:08;;;;;;;9.07;2.08;;;;;;;8.04;100.00;100620.19;5021019;28;20037;-94
2023/01/12 04:05:34;;;;;;;9.43;2.72;;;;;;;8.02;100.00;100611.44;5021288;28;20935;-95
2023/01/12 04:07:59;;;;;;;8.63;1.80;;;;;;;8.03;100.00;100607.16;5015099;28;20032;-95
2023/01/12 04:10:27;;;;;;;8.27;2.25;;;;;;;8.03;100.00;100613.22;5019988;28;20029;-94
2023/01/12 04:12:52;;;;;;;7.15;2.00;;;;;;;8.02;100.00;100601.06;5020481;28;20043;-96
2023/01/12 04:15:18;;;;;;;10.02;2.10;;;;;;;8.03;100.00;100595.06;5015884;28;20025;-95
2023/01/12 04:17:43;;;;;;;8.48;2.10;;;;;;;8.04;100.00;100560.50;5020475;28;20027;-95
2023/01/12 04:20:09;;;;;;;10.43;2.25;;;;;;;8.06;100.00;100560.53;5020685;28;20053;-94
2023/01/12 04:22:44;;;;;;;8.93;1.85;;;;;;;8.03;100.00;100561.31;5021225;28;20031;-94
2023/01/12 04:25:20;;;;;;;11.55;2.05;;;;;;;8.03;100.00;100571.72;5021244;28;20022;-95
2023/01/12 04:27:48;;;;;;;9.73;2.33;;;;;;;8.03;100.00;100556.13;5019487;28;20042;-95
2023/01/12 04:30:16;;;;;;;10.52;2.70;;;;;;;8.03;100.00;100547.50;5020894;28;20075;-95
2023/01/12 04:32:43;;;;;;;8.38;2.38;;;;;;;8.00;100.00;100548.28;5020607;28;20032;-95
2023/01/12 04:35:10;;;;;;;8.10;2.25;;;;;;;7.98;100.00;100539.53;5024365;28;20049;-94
2023/01/12 04:37:37;;;;;;;12.25;1.90;;;;;;;7.97;100.00;100515.31;5022038;28;20033;-94
2023/01/12 04:40:03;;;;;;;6.75;2.00;;;;;;;7.98;100.00;100521.38;5024133;28;20147;-95
2023/01/12 04:43:11;;;;;;;9.05;1.98;;;;;;;7.98;100.00;100526.56;5024818;28;20057;-95
2023/01/12 04:45:18;;;;;;;10.93;2.20;;;;;;;7.97;100.00;100511.88;5017439;28;20314;-94
2023/01/12 04:47:43;;;;;;;9.18;1.77;;;;;;;7.96;100.00;100497.13;5025098;28;20157;-95
2023/01/12 04:50:09;;;;;;;10.05;2.20;;;;;;;7.97;100.00;100480.72;5022659;28;20112;-95
2023/01/12 04:52:36;;;;;;;9.05;1.90;;;;;;;7.98;100.00;100482.47;5023866;28;20124;-94
2023/01/12 04:55:02;;;;;;;7.07;1.73;;;;;;;7.97;100.00;100473.81;5025142;28;20060;-95
2023/01/12 04:57:27;;;;;;;11.68;2.17;;;;;;;7.98;100.00;100469.50;5024360;28;20057;-95
2023/01/12 04:59:53;;;;;;;8.45;2.30;;;;;;;7.98;100.00;100456.53;5025332;28;20223;-95
2023/01/12 05:02:18;;;;;;;9.02;2.13;;;;;;;7.97;100.00;100457.38;5022347;28;20087;-94
2023/01/12 05:04:46;;;;;;;11.93;2.10;;;;;;;7.99;100.00;100473.84;5022821;28;20052;-93
2023/01/12 05:07:12;;;;;;;8.82;1.95;;;;;;;7.99;100.00;100468.66;5023022;28;20195;-93
2023/01/12 05:12:21;;;;;;;7.05;1.70;;;;;;;7.99;100.00;100455.69;5024465;28;20041;-94
2023/01/12 05:14:49;;;;;;;9.27;1.88;;;;;;;8.00;100.00;100432.38;5024110;28;20037;-94
2023/01/12 05:17:15;;;;;;;10.20;1.90;;;;;;;8.01;100.00;100452.31;5022004;28;20028;-94
2023/01/12 05:19:40;;;;;;;8.90;1.95;;;;;;;8.00;100.00;100460.06;5021849;28;20042;-94
2023/01/12 05:22:06;;;;;;;9.52;2.00;;;;;;;7.99;100.00;100456.59;5023250;28;20021;-94
2023/01/12 05:24:32;;;;;;;9.85;2.22;;;;;;;7.99;100.00;100451.41;5022838;28;20083;-94
2023/01/12 05:26:59;;;;;;;9.85;1.80;;;;;;;8.00;100.00;100462.66;5015942;28;20045;-95
2023/01/12 05:29:24;;;;;;;9.63;2.03;;;;;;;8.00;100.00;100483.41;5018161;28;20048;-94
2023/01/12 05:31:50;;;;;;;9.95;1.95;;;;;;;8.00;100.00;100467.84;5023369;28;20477;-95
2023/01/12 05:34:18;;;;;;;9.75;2.00;;;;;;;7.99;100.00;100450.50;5022576;28;20516;-94
2023/01/12 05:36:43;;;;;;;11.40;1.83;;;;;;;8.01;100.00;100443.66;5022736;28;20021;-94
2023/01/12 05:39:09;;;;;;;8.90;1.67;;;;;;;8.00;100.00;100447.09;5022496;28;20390;-95
2023/01/12 05:41:34;;;;;;;8.55;1.80;;;;;;;7.98;100.00;100459.13;5021974;28;20489;-94
2023/01/12 05:44:02;;;;;;;4.53;1.65;;;;;;;7.99;100.00;100455.69;5016062;28;20183;-94
2023/01/12 05:46:30;;;;;;;7.50;1.70;;;;;;;7.99;100.00;100460.88;5021316;28;20041;-95
2023/01/12 05:48:56;;;;;;;9.13;1.80;;;;;;;8.00;100.00;100449.69;5038171;28;20540;-94
2023/01/12 05:51:24;;;;;;;8.93;1.70;;;;;;;8.00;100.00;100455.72;5034091;28;20025;-95
2023/01/12 05:53:50;;;;;;;7.85;1.45;;;;;;;8.00;100.00;100457.47;5021085;28;20037;-95
2023/01/12 05:56:20;;;;;;;5.47;1.52;;;;;;;8.02;100.00;100450.59;5039720;28;20494;-94
2023/01/12 05:58:57;;;;;;;6.20;1.33;;;;;;;8.02;100.00;100445.41;5021296;28;20041;-94
2023/01/12 06:01:23;;;;;;;5.57;1.48;;;;;;;8.01;100.00;100434.16;5016358;28;20029;-94
2023/01/12 06:03:50;;;;;;;7.50;1.83;;;;;;;8.03;100.00;100434.19;5015009;28;20025;-94
2023/01/12 06:06:19;;;;;;;6.68;1.40;;;;;;;8.03;100.00;100421.22;5024468;28;20069;-94
2023/01/12 06:08:45;;;;;;;5.82;1.48;;;;;;;8.04;100.00;100443.75;5038819;28;20474;-94
2023/01/12 06:13:55;;;;;;;8.23;1.70;;;;;;;8.05;100.00;100437.69;5023149;28;20433;-94
2023/01/12 06:13:58;;;;;;;7.03;1.30;;;;;;;8.08;100.00;100427.44;5022346;28;20052;-94
2023/01/12 06:16:25;;;;;;;4.78;1.27;;;;;;;8.07;100.00;100443.81;5021127;28;20029;-96
2023/01/12 06:18:51;;;;;;;7.20;1.45;;;;;;;8.09;100.00;100442.13;5038134;28;20059;-94
2023/01/12 06:21:16;;;;;;;5.38;1.30;;;;;;;8.13;100.00;100446.56;5021364;28;20502;-95
2023/01/12 06:23:41;;;;;;;4.70;1.40;;;;;;;8.12;100.00;100430.97;5020213;28;20025;-95
2023/01/12 06:26:08;;;;;;;6.25;1.48;;;;;;;8.14;100.00;100440.56;5020311;28;20980;-94
2023/01/12 06:28:38;;;;;;;3.72;1.05;;;;;;;8.15;100.00;100437.13;5020874;28;20049;-95
2023/01/12 06:31:07;;;;;;;5.15;1.10;;;;;;;8.15;100.00;100437.13;5021912;28;20029;-95
2023/01/12 06:33:32;;;;;;;5.38;1.35;;;;;;;8.18;100.00;100439.81;5022305;28;20025;-95
2023/01/12 06:35:58;;;;;;;5.25;1.10;;;;;;;8.18;100.00;100442.41;5022021;28;20040;-94
2023/01/12 06:38:26;;;;;;;4.05;1.13;;;;;;;8.21;100.00;100451.09;5023955;28;20107;-95
2023/01/12 06:40:51;;;;;;;5.88;1.25;;;;;;;8.21;100.00;100440.72;5039122;28;20084;-94
2023/01/12 06:43:17;;;;;;;4.85;1.15;;;;;;;8.23;100.00;100439.06;5020542;28;20160;-95
2023/01/12 06:45:44;;;;;;;3.10;1.00;;;;;;;8.24;100.00;100457.25;5022256;28;20544;-93
2023/01/12 06:48:09;;;;;;;6.85;1.23;;;;;;;8.26;100.00;100436.53;5021124;28;20033;-94
2023/01/12 06:50:35;;;;;;;5.88;1.50;;;;;;;8.26;100.00;100434.81;5021430;28;20029;-95
2023/01/12 06:53:02;;;;;;;4.65;1.05;;;;;;;8.29;100.00;100440.06;5021154;28;20041;-95
2023/01/12 06:55:28;;;;;;;5.22;1.80;;;;;;;8.31;100.00;100435.81;5020921;28;20502;-94
2023/01/12 06:57:54;;;;;;;6.93;1.23;;;;;;;8.32;100.00;100442.75;5022083;28;20085;-94
2023/01/12 07:00:20;;;;;;;3.58;1.13;;;;;;;8.32;100.00;100445.34;5022029;28;20025;-95
2023/01/12 07:02:49;;;;;;;4.60;1.23;;;;;;;8.32;100.00;100436.69;5020617;28;20056;-94
2023/01/12 07:05:15;;;;;;;;;;;;;;;8.39;100.00;100436.00;5021744;28;20017;-94
2023/01/12 07:07:40;;;;;;;3.17;0.77;;;;;;;8.37;100.00;100437.66;5016727;28;20645;-94
2023/01/12 07:10:06;;;;;;;5.50;1.10;;;;;;;8.36;100.00;100435.94;5020540;28;20458;-96
2023/01/12 07:12:31;;;;;;;4.22;1.02;;;;;;;8.36;100.00;100441.13;5021346;28;20131;-95
2023/01/12 07:14:58;;;;;;;3.45;0.80;;;;;;;8.36;100.00;100431.59;5022959;28;20168;-95
2023/01/12 07:17:24;;;;;;;4.82;1.25;;;;;;;8.39;100.00;100432.53;5021822;28;20524;-94
2023/01/12 07:19:49;;;;;;;4.40;1.13;;;;;;;8.39;100.00;100427.34;5020762;28;20113;-94
2023/01/12 07:22:14;;;;;;;4.35;1.10;;;;;;;8.39;100.00;100443.78;5022662;28;20037;-94
2023/01/12 07:24:40;;;;;;;3.47;0.90;;;;;;;8.40;100.00;100432.59;5020400;28;20108;-94
2023/01/12 07:27:05;;;;;;;3.28;1.20;;;;;;;8.40;100.00;100448.16;5021292;28;20135;-95
2023/01/12 07:29:30;;;;;;;3.63;0.80;;;;;;;8.42;100.00;100441.28;5020428;28;20080;-95
2023/01/12 07:31:56;;;;;;;3.38;1.02;;;;;;;8.42;100.00;100445.59;5021526;28;20402;-95
2023/01/12 07:34:21;;;;;;;3.40;1.00;;;;;;;8.43;100.00;100444.75;5020453;28;20121;-95
2023/01/12 07:36:48;;;;;;;3.83;1.08;;;;;;;8.44;100.00;100449.09;5037958;28;20478;-96
2023/01/12 07:39:14;;;;;;;4.28;1.02;;;;;;;8.47;100.00;100464.78;5019993;28;20550;-95
2023/01/12 07:44:23;;;;;;;3.85;1.20;;;;;;;8.50;100.00;100462.25;5024401;28;20098;-95
2023/01/12 07:46:49;;;;;;;4.90;0.90;;;;;;;8.50;100.00;100465.75;5020926;28;20029;-96
2023/01/12 07:49:14;;;;;;;4.13;0.93;;;;;;;8.52;100.00;100465.81;5016645;28;20029;-95
2023/01/12 07:51:40;;;;;;;2.58;0.98;;;;;;;8.52;100.00;100468.41;5013891;28;20064;-93
2023/01/12 07:54:05;;;;;;;4.75;1.13;;;;;;;8.52;100.00;100464.06;5037889;28;20029;-93
2023/01/12 07:56:31;;;;;;;3.55;0.98;;;;;;;8.56;100.00;100471.94;5018440;28;20028;-94
2023/01/12 07:58:56;;;;;;;3.08;1.15;;;;;;;8.58;100.00;100467.69;5019508;28;20442;-93
2023/01/12 08:01:22;;;;;;;3.88;1.00;;;;;;;8.58;100.00;100473.75;5020956;28;20044;-94
2023/01/12 08:03:47;;;;;;;3.08;1.00;;;;;;;8.60;100.00;100469.44;5021253;28;20454;-94
2023/01/12 08:06:13;;;;;;;5.63;1.02;;;;;;;8.59;100.00;100475.50;5020202;28;20034;-95
2023/01/12 08:08:38;;;;;;;3.00;1.20;;;;;;;8.59;100.00;100474.59;5019175;28;20466;-95
2023/01/12 08:11:08;;;;;;;3.78;1.20;;;;;;;8.58;100.00;100484.13;5018335;28;20137;-94
2023/01/12 08:13:35;;;;;;;3.38;0.98;;;;;;;8.60;100.00;100486.75;5024288;28;20594;-95
2023/01/12 08:16:07;;;;;;;2.33;1.05;;;;;;;8.61;100.00;100485.94;5024895;28;20029;-95
2023/01/12 08:18:39;;;;;;;3.05;1.00;;;;;;;8.64;100.00;100496.41;5036464;28;20143;-95
2023/01/12 08:21:10;;;;;;;3.65;1.02;;;;;;;8.66;100.00;100497.28;5025028;28;21104;-96
2023/01/12 08:23:42;;;;;;;5.05;1.23;;;;;;;8.66;100.00;100497.28;5024979;28;20605;-94
2023/01/12 08:26:14;;;;;;;4.55;1.02;;;;;;;8.65;100.00;100492.97;5021980;28;20631;-94
2023/01/12 08:28:45;;;;;;;3.90;1.10;;;;;;;8.67;100.00;100497.34;5025557;28;20514;-96
2023/01/12 08:33:46;;;;;;;3.40;1.00;;;;;;;8.68;100.00;100504.28;5057696;22;20061;-96
2023/01/12 08:36:15;;;;;;;3.65;0.90;;;;;;;8.71;100.00;100511.28;5027068;28;20517;-96
2023/01/12 08:38:40;;;;;;;4.25;1.02;;;;;;;8.72;100.00;100510.47;5043558;28;20034;-96
2023/01/12 08:44:02;;;;;;;3.22;1.00;;;;;;;8.74;100.00;100510.50;5024484;28;20093;-96
2023/01/12 08:46:51;;;;;;;2.45;1.00;;;;;;;8.75;100.00;100520.94;5024651;28;20032;-96
2023/01/12 08:49:19;;;;;;;2.75;1.00;;;;;;;8.77;100.00;100515.78;5029277;28;20521;-96
2023/01/12 08:51:45;;;;;;;2.80;1.00;;;;;;;8.78;100.00;100523.59;5024901;28;20026;-96
2023/01/12 08:54:12;;;;;;;3.65;1.00;;;;;;;8.79;100.00;100527.06;5025196;28;20027;-96
2023/01/12 08:56:37;;;;;;;3.70;1.30;;;;;;;8.80;100.00;100534.91;5025517;28;20013;-96
2023/01/12 08:59:04;;;;;;;3.45;1.10;;;;;;;8.82;100.00;100538.44;5024641;28;20044;-96
2023/01/12 09:01:29;;;;;;;2.63;1.27;;;;;;;8.83;100.00;100537.56;5041129;28;20063;-96
2023/01/12 09:03:56;;;;;;;2.78;1.17;;;;;;;8.84;100.00;100539.34;5042016;28;20113;-96
2023/01/12 09:06:29;;;;;;;5.38;1.10;;;;;;;8.85;100.00;100543.72;5023270;28;20091;-96
2023/01/12 09:08:59;;;;;;;3.05;1.23;;;;;;;8.85;100.00;100548.03;5023930;28;20071;-96
2023/01/12 09:11:26;;;;;;;4.30;1.30;;;;;;;8.87;100.00;100552.41;5025865;28;20029;-96
2023/01/12 09:13:51;;;;;;;3.65;1.20;;;;;;;8.91;100.00;100547.28;5033478;28;20028;-96
2023/01/12 09:16:18;;;;;;;2.60;1.02;;;;;;;8.90;100.00;100548.16;5025533;28;20029;-96
2023/01/12 09:18:44;;;;;;;3.85;1.02;;;;;;;8.92;100.00;100546.44;5024022;28;20025;-96
2023/01/12 09:21:16;;;;;;;2.65;1.10;;;;;;;8.94;100.00;100560.38;5024573;28;20053;-96
2023/01/12 09:23:43;;;;;;;3.10;1.10;;;;;;;8.95;100.00;100556.91;5023916;28;20116;-96
2023/01/12 09:26:13;;;;;;;3.60;1.10;;;;;;;8.99;100.00;100558.75;5024102;28;20730;-96
2023/01/12 09:28:40;;;;;;;3.72;1.10;;;;;;;8.98;100.00;100557.00;5023421;28;20026;-95
2023/01/12 09:31:07;;;;;;;3.58;1.25;;;;;;;8.98;100.00;100560.50;5023977;28;20051;-95
2023/01/12 09:33:34;;;;;;;5.38;1.10;;;;;;;8.99;100.00;100563.97;5023784;28;20172;-95
2023/01/12 09:36:10;;;;;;;2.75;1.00;;;;;;;9.01;100.00;100568.38;5022597;28;20049;-94
2023/01/12 09:38:37;;;;;;;3.20;1.00;;;;;;;9.01;100.00;100559.69;5040157;28;20029;-95
2023/01/12 09:41:11;;;;;;;2.85;1.13;;;;;;;9.03;100.00;100571.88;5022753;28;20025;-95
2023/01/12 09:46:59;;;;;;;1.92;0.70;;;;;;;9.07;100.00;100561.53;5023847;28;20076;-95
2023/01/12 09:49:29;;;;;;;2.25;0.80;;;;;;;9.06;100.00;100573.66;5022419;28;20045;-96
2023/01/12 09:52:04;;;;;;;1.45;0.63;;;;;;;9.08;100.00;100585.00;5022761;28;20044;-95
2023/01/12 09:54:33;;;;;;;3.38;0.82;;;;;;;9.10;100.00;100587.63;5023154;28;20037;-95
2023/01/12 09:57:29;;;;;;;2.10;0.60;;;;;;;9.10;100.00;100595.44;5023354;28;20045;-95
2023/01/12 10:00:10;;;;;;;2.10;0.50;;;;;;;9.10;100.00;100580.72;5021770;28;20072;-95
2023/01/12 10:02:39;;;;;;;2.60;0.70;;;;;;;9.09;100.00;100591.94;5023009;28;20034;-96
2023/01/12 10:05:12;;;;;;;3.35;0.90;;;;;;;9.10;100.00;100588.50;5022461;28;20037;-95
2023/01/12 10:07:38;;;;;;;2.33;0.75;;;;;;;9.10;100.00;100588.50;5021923;28;20115;-96
2023/01/12 10:10:04;;;;;;;1.52;0.60;;;;;;;9.10;100.00;100585.03;5021919;28;20112;-94
2023/01/12 10:12:40;;;;;;;2.33;0.85;;;;;;;9.11;100.00;100590.28;5021304;28;20147;-96
2023/01/12 10:15:41;;;;;;;3.25;0.77;;;;;;;9.12;100.00;100586.81;5021830;28;20036;-95
2023/01/12 10:18:19;;;;;;;3.35;0.77;;;;;;;9.13;100.00;100583.38;5022467;28;20053;-95
2023/01/12 10:20:44;;;;;;;1.52;0.70;;;;;;;9.14;100.00;100598.16;5038042;28;20033;-96
2023/01/12 10:23:15;;;;;;;2.53;0.70;;;;;;;9.14;100.00;100595.53;5022852;28;20040;-94
2023/01/12 10:25:46;;;;;;;1.77;0.70;;;;;;;9.16;100.00;100600.78;5020702;28;20033;-94
2023/01/12 10:28:28;;;;;;;3.38;0.70;;;;;;;9.16;100.00;100591.25;5023567;28;21419;-96
2023/01/12 10:30:55;;;;;;;2.10;0.80;;;;;;;9.18;100.00;100594.78;5037090;28;20033;-96
2023/01/12 10:33:31;;;;;;;2.08;0.80;;;;;;;9.16;100.00;100588.66;5023169;28;20029;-96
2023/01/12 10:36:06;;;;;;;3.10;0.60;;;;;;;9.18;100.00;100587.00;5025834;28;20088;-94
2023/01/12 10:38:33;;;;;;;1.35;0.70;;;;;;;9.20;100.00;100592.22;5025415;28;20454;-96
2023/01/12 10:41:11;;;;;;;2.80;1.00;;;;;;;9.21;100.00;100586.16;5024325;28;20025;-96
2023/01/12 10:43:40;;;;;;;2.97;0.90;;;;;;;9.21;100.00;100592.25;5062370;28;20028;-96
2023/01/12 10:46:13;;;;;;;3.63;0.70;;;;;;;9.23;100.00;100592.28;5038310;28;20112;-94
2023/01/12 10:48:42;;;;;;;1.88;0.70;;;;;;;9.23;100.00;100577.56;5037040;28;20025;-95
2023/01/12 10:51:27;;;;;;;2.03;0.60;;;;;;;9.27;100.00;100583.75;5055105;28;20533;-95
2023/01/12 10:54:01;;;;;;;2.03;0.90;;;;;;;9.29;100.00;100579.44;5022726;28;20040;-96
2023/01/12 10:56:37;;;;;;;2.17;0.60;;;;;;;9.30;100.00;100589.00;5039587;28;20021;-96
2023/01/12 10:59:18;;;;;;;1.05;0.60;;;;;;;9.31;100.00;100588.19;5022115;28;20029;-95
2023/01/12 11:02:12;;;;;;;1.33;0.60;;;;;;;9.32;100.00;100583.84;5020819;28;20013;-96
2023/01/12 11:04:44;;;;;;;1.52;0.65;;;;;;;9.34;100.00;100595.16;5023639;28;20029;-96
2023/01/12 11:07:26;;;;;;;1.67;0.70;;;;;;;9.33;100.00;100590.81;5021713;28;20064;-96
2023/01/12 11:09:53;;;;;;;2.25;1.02;;;;;;;9.34;100.00;100588.25;5022150;28;20033;-96
2023/01/12 11:12:47;;;;;;;8.32;4.30;;;;;;;9.34;100.00;100587.34;5020596;28;20055;-96
2023/01/12 11:15:19;;;;;;;2.92;1.00;;;;;;;9.36;100.00;100593.47;5019125;28;20126;-96
2023/01/12 11:18:27;;;;;;;13.68;9.63;;;;;;;9.35;100.00;100581.31;5021698;28;20026;-96
2023/01/12 11:21:09;;;;;;;1.98;0.98;;;;;;;9.40;100.00;100597.91;5021556;28;20577;-96
2023/01/12 11:23:48;;;;;;;1.52;0.80;;;;;;;9.38;100.00;100595.28;5021909;28;20044;-96
2023/01/12 11:26:21;;;;;;;1.70;0.90;;;;;;;9.40;100.00;100582.31;5020248;28;20029;-95
2023/01/12 11:28:58;;;;;;;3.85;1.80;;;;;;;9.40;100.00;100577.13;5021099;28;20014;-96
2023/01/12 11:31:44;;;;;;;4.10;1.83;;;;;;;9.41;100.00;100589.25;5021636;28;20263;-94
2023/01/12 11:34:18;;;;;;;1.88;1.00;;;;;;;9.43;100.00;100578.88;5020854;28;20037;-94
2023/01/12 11:36:53;;;;;;;1.60;0.90;;;;;;;9.42;100.00;100591.03;5021570;28;20029;-95
2023/01/12 11:39:26;;;;;;;2.53;1.10;;;;;;;9.40;100.00;100583.19;5021154;28;20041;-95
2023/01/12 11:44:55;;;;;;;1.30;0.68;;;;;;;9.41;100.00;100584.06;5026461;28;20414;-95
2023/01/12 11:47:26;;;;;;;2.53;0.80;;;;;;;9.42;100.00;100577.16;5026095;28;20059;-95
2023/01/12 11:49:59;;;;;;;2.28;1.15;;;;;;;9.43;100.00;100577.19;5043210;28;20426;-96
2023/01/12 11:52:25;;;;;;;2.58;1.52;;;;;;;9.41;100.00;100573.66;5027232;28;20056;-95
2023/01/12 11:54:51;;;;;;;2.15;0.90;;;;;;;9.42;100.00;100562.41;5023792;28;20033;-95
2023/01/12 11:57:28;;;;;;;2.83;0.93;;;;;;;9.43;100.00;100574.59;5025322;28;20037;-95
2023/01/12 12:00:07;;;;;;;2.10;0.70;;;;;;;9.47;100.00;100567.72;5025312;28;20495;-94
2023/01/12 12:03:29;;;;;;;2.00;0.90;;;;;;;9.48;100.00;100569.50;5025266;28;20017;-94
2023/01/12 12:06:10;;;;;;;3.50;2.10;;;;;;;9.48;100.00;100567.75;5007686;28;20033;-96
2023/01/12 12:09:08;;;;;;;3.45;1.20;;;;;;;9.50;100.00;100554.78;5024988;28;20017;-96